sensor_id;sensor_type;location;lat;lon;timestamp;P1;durP1;ratioP1;P2;durP2;ratioP2
15952;SDS011;8075;47.766;8.846;2023-07-29T00:01:21;3.53;;;3.22;;
15952;SDS011;8075;47.766;8.846;2023-07-29T00:03:47;3.67;;;3.38;;
15952;SDS011;8075;47.766;8.846;2023-07-29T00:06:13;3.67;;;3.38;;
15952;SDS011;8075;47.766;8.846;2023-07-29T00:08:39;6.20;;;5.60;;
15952;SDS011;8075;47.766;8.846;2023-07-29T00:11:05;4.07;;;3.78;;
15952;SDS011;8075;47.766;8.846;2023-07-29T00:13:31;3.75;;;3.30;;
15952;SDS011;8075;47.766;8.846;2023-07-29T00:15:57;3.58;;;3.28;;
15952;SDS011;8075;47.766;8.846;2023-07-29T00:18:23;3.30;;;3.00;;
15952;SDS011;8075;47.766;8.846;2023-07-29T00:20:49;3.42;;;3.15;;
15952;SDS011;8075;47.766;8.846;2023-07-29T00:23:16;3.28;;;3.00;;
15952;SDS011;8075;47.766;8.846;2023-07-29T00:25:44;3.38;;;2.70;;
15952;SDS011;8075;47.766;8.846;2023-07-29T00:28:11;2.92;;;2.58;;
15952;SDS011;8075;47.766;8.846;2023-07-29T00:30:36;4.05;;;2.85;;
15952;SDS011;8075;47.766;8.846;2023-07-29T00:33:02;3.55;;;3.00;;
15952;SDS011;8075;47.766;8.846;2023-07-29T00:35:28;3.13;;;2.88;;
15952;SDS011;8075;47.766;8.846;2023-07-29T00:37:54;3.40;;;3.20;;
15952;SDS011;8075;47.766;8.846;2023-07-29T00:40:21;3.35;;;3.08;;
15952;SDS011;8075;47.766;8.846;2023-07-29T00:42:47;2.83;;;2.60;;
15952;SDS011;8075;47.766;8.846;2023-07-29T00:45:14;3.25;;;2.80;;
15952;SDS011;8075;47.766;8.846;2023-07-29T00:47:40;2.90;;;2.70;;
15952;SDS011;8075;47.766;8.846;2023-07-29T00:50:06;3.50;;;3.00;;
15952;SDS011;8075;47.766;8.846;2023-07-29T00:52:33;3.15;;;2.85;;
15952;SDS011;8075;47.766;8.846;2023-07-29T00:54:59;2.70;;;2.50;;
15952;SDS011;8075;47.766;8.846;2023-07-29T00:57:25;3.78;;;3.00;;
15952;SDS011;8075;47.766;8.846;2023-07-29T00:59:51;3.25;;;2.63;;
15952;SDS011;8075;47.766;8.846;2023-07-29T01:02:17;3.13;;;2.83;;
15952;SDS011;8075;47.766;8.846;2023-07-29T01:04:43;3.37;;;2.97;;
15952;SDS011;8075;47.766;8.846;2023-07-29T01:07:19;3.10;;;2.90;;
15952;SDS011;8075;47.766;8.846;2023-07-29T01:15:10;2.83;;;2.63;;
15952;SDS011;8075;47.766;8.846;2023-07-29T01:17:40;2.83;;;2.63;;
15952;SDS011;8075;47.766;8.846;2023-07-29T01:20:08;2.95;;;2.65;;
15952;SDS011;8075;47.766;8.846;2023-07-29T01:22:35;3.35;;;3.08;;
15952;SDS011;8075;47.766;8.846;2023-07-29T01:25:02;3.08;;;2.80;;
15952;SDS011;8075;47.766;8.846;2023-07-29T01:27:28;3.35;;;2.70;;
15952;SDS011;8075;47.766;8.846;2023-07-29T01:29:55;2.78;;;2.50;;
15952;SDS011;8075;47.766;8.846;2023-07-29T01:37:39;2.72;;;2.53;;
15952;SDS011;8075;47.766;8.846;2023-07-29T01:40:07;2.70;;;2.50;;
15952;SDS011;8075;47.766;8.846;2023-07-29T01:42:34;2.90;;;2.70;;
15952;SDS011;8075;47.766;8.846;2023-07-29T01:45:00;3.33;;;3.03;;
15952;SDS011;8075;47.766;8.846;2023-07-29T01:47:26;3.33;;;3.03;;
15952;SDS011;8075;47.766;8.846;2023-07-29T01:49:52;3.15;;;2.85;;
15952;SDS011;8075;47.766;8.846;2023-07-29T01:52:18;4.57;;;3.00;;
15952;SDS011;8075;47.766;8.846;2023-07-29T01:54:44;3.13;;;2.80;;
15952;SDS011;8075;47.766;8.846;2023-07-29T01:57:10;3.20;;;2.90;;
15952;SDS011;8075;47.766;8.846;2023-07-29T01:59:36;3.22;;;2.72;;
15952;SDS011;8075;47.766;8.846;2023-07-29T02:02:02;4.30;;;3.00;;
15952;SDS011;8075;47.766;8.846;2023-07-29T02:04:28;3.03;;;2.83;;
15952;SDS011;8075;47.766;8.846;2023-07-29T02:06:54;3.00;;;2.50;;
15952;SDS011;8075;47.766;8.846;2023-07-29T02:09:20;3.47;;;3.00;;
15952;SDS011;8075;47.766;8.846;2023-07-29T02:11:46;3.40;;;2.60;;
15952;SDS011;8075;47.766;8.846;2023-07-29T02:14:12;3.20;;;3.00;;
15952;SDS011;8075;47.766;8.846;2023-07-29T02:16:38;2.88;;;2.60;;
15952;SDS011;8075;47.766;8.846;2023-07-29T02:19:04;3.17;;;2.88;;
15952;SDS011;8075;47.766;8.846;2023-07-29T02:21:30;3.65;;;3.35;;
15952;SDS011;8075;47.766;8.846;2023-07-29T02:23:56;3.10;;;2.80;;
15952;SDS011;8075;47.766;8.846;2023-07-29T02:26:22;3.30;;;2.90;;
15952;SDS011;8075;47.766;8.846;2023-07-29T02:28:48;3.17;;;2.95;;
15952;SDS011;8075;47.766;8.846;2023-07-29T02:31:19;3.00;;;2.80;;
15952;SDS011;8075;47.766;8.846;2023-07-29T02:33:46;3.67;;;3.00;;
15952;SDS011;8075;47.766;8.846;2023-07-29T02:36:12;3.00;;;2.80;;
15952;SDS011;8075;47.766;8.846;2023-07-29T02:38:39;3.58;;;2.83;;
15952;SDS011;8075;47.766;8.846;2023-07-29T02:41:05;3.03;;;2.80;;
15952;SDS011;8075;47.766;8.846;2023-07-29T02:43:33;3.35;;;3.00;;
15952;SDS011;8075;47.766;8.846;2023-07-29T02:45:59;3.10;;;2.60;;
15952;SDS011;8075;47.766;8.846;2023-07-29T02:48:25;3.00;;;2.70;;
15952;SDS011;8075;47.766;8.846;2023-07-29T02:50:51;3.70;;;2.88;;
15952;SDS011;8075;47.766;8.846;2023-07-29T02:53:17;3.03;;;2.50;;
15952;SDS011;8075;47.766;8.846;2023-07-29T02:55:43;3.95;;;2.50;;
15952;SDS011;8075;47.766;8.846;2023-07-29T02:58:09;3.58;;;3.00;;
15952;SDS011;8075;47.766;8.846;2023-07-29T03:00:35;3.30;;;2.38;;
15952;SDS011;8075;47.766;8.846;2023-07-29T03:03:01;3.30;;;2.53;;
15952;SDS011;8075;47.766;8.846;2023-07-29T03:05:27;3.13;;;2.50;;
15952;SDS011;8075;47.766;8.846;2023-07-29T03:07:53;2.80;;;2.60;;
15952;SDS011;8075;47.766;8.846;2023-07-29T03:10:19;2.70;;;2.42;;
15952;SDS011;8075;47.766;8.846;2023-07-29T03:12:45;2.90;;;2.60;;
15952;SDS011;8075;47.766;8.846;2023-07-29T03:15:12;2.80;;;2.60;;
15952;SDS011;8075;47.766;8.846;2023-07-29T03:17:38;4.30;;;2.60;;
15952;SDS011;8075;47.766;8.846;2023-07-29T03:20:04;2.80;;;2.35;;
15952;SDS011;8075;47.766;8.846;2023-07-29T03:22:30;3.50;;;2.92;;
15952;SDS011;8075;47.766;8.846;2023-07-29T03:24:56;3.47;;;3.13;;
15952;SDS011;8075;47.766;8.846;2023-07-29T03:27:22;4.93;;;3.00;;
15952;SDS011;8075;47.766;8.846;2023-07-29T03:29:48;2.92;;;2.50;;
15952;SDS011;8075;47.766;8.846;2023-07-29T03:32:14;2.75;;;2.55;;
15952;SDS011;8075;47.766;8.846;2023-07-29T03:34:40;3.00;;;2.80;;
15952;SDS011;8075;47.766;8.846;2023-07-29T03:37:06;2.63;;;2.42;;
15952;SDS011;8075;47.766;8.846;2023-07-29T03:39:32;2.72;;;2.50;;
15952;SDS011;8075;47.766;8.846;2023-07-29T03:41:58;3.45;;;2.72;;
15952;SDS011;8075;47.766;8.846;2023-07-29T03:44:24;3.00;;;2.67;;
15952;SDS011;8075;47.766;8.846;2023-07-29T03:46:50;3.40;;;2.70;;
15952;SDS011;8075;47.766;8.846;2023-07-29T03:49:16;3.58;;;2.55;;
15952;SDS011;8075;47.766;8.846;2023-07-29T03:51:42;2.70;;;2.50;;
15952;SDS011;8075;47.766;8.846;2023-07-29T03:54:08;4.10;;;3.00;;
15952;SDS011;8075;47.766;8.846;2023-07-29T03:56:34;4.30;;;3.70;;
15952;SDS011;8075;47.766;8.846;2023-07-29T03:59:04;3.65;;;3.35;;
15952;SDS011;8075;47.766;8.846;2023-07-29T04:01:31;3.47;;;3.28;;
15952;SDS011;8075;47.766;8.846;2023-07-29T04:03:57;3.45;;;3.22;;
15952;SDS011;8075;47.766;8.846;2023-07-29T04:06:23;4.63;;;3.03;;
15952;SDS011;8075;47.766;8.846;2023-07-29T04:08:49;3.20;;;3.00;;
15952;SDS011;8075;47.766;8.846;2023-07-29T04:11:15;4.28;;;2.67;;
15952;SDS011;8075;47.766;8.846;2023-07-29T04:13:41;3.70;;;3.40;;
15952;SDS011;8075;47.766;8.846;2023-07-29T04:16:07;3.63;;;3.33;;
15952;SDS011;8075;47.766;8.846;2023-07-29T04:18:33;3.20;;;2.90;;
15952;SDS011;8075;47.766;8.846;2023-07-29T04:20:59;3.72;;;3.42;;
15952;SDS011;8075;47.766;8.846;2023-07-29T04:23:25;4.30;;;3.47;;
15952;SDS011;8075;47.766;8.846;2023-07-29T04:25:51;3.83;;;3.40;;
15952;SDS011;8075;47.766;8.846;2023-07-29T04:28:17;4.25;;;3.50;;
15952;SDS011;8075;47.766;8.846;2023-07-29T04:30:43;5.53;;;4.07;;
15952;SDS011;8075;47.766;8.846;2023-07-29T04:33:09;4.00;;;3.70;;
15952;SDS011;8075;47.766;8.846;2023-07-29T04:35:35;6.22;;;4.30;;
15952;SDS011;8075;47.766;8.846;2023-07-29T04:38:01;4.85;;;4.45;;
15952;SDS011;8075;47.766;8.846;2023-07-29T04:40:27;5.45;;;4.90;;
15952;SDS011;8075;47.766;8.846;2023-07-29T04:42:53;4.88;;;4.47;;
15952;SDS011;8075;47.766;8.846;2023-07-29T04:45:19;4.55;;;4.15;;
15952;SDS011;8075;47.766;8.846;2023-07-29T04:47:45;4.20;;;3.90;;
15952;SDS011;8075;47.766;8.846;2023-07-29T04:50:11;4.88;;;4.47;;
15952;SDS011;8075;47.766;8.846;2023-07-29T04:52:37;6.07;;;4.60;;
15952;SDS011;8075;47.766;8.846;2023-07-29T04:55:03;4.68;;;4.28;;
15952;SDS011;8075;47.766;8.846;2023-07-29T04:57:29;5.47;;;4.30;;
15952;SDS011;8075;47.766;8.846;2023-07-29T04:59:55;4.40;;;4.00;;
15952;SDS011;8075;47.766;8.846;2023-07-29T05:02:21;4.13;;;3.58;;
15952;SDS011;8075;47.766;8.846;2023-07-29T05:04:47;3.90;;;3.60;;
15952;SDS011;8075;47.766;8.846;2023-07-29T05:07:13;4.50;;;4.15;;
15952;SDS011;8075;47.766;8.846;2023-07-29T05:09:39;4.28;;;3.88;;
15952;SDS011;8075;47.766;8.846;2023-07-29T05:12:05;5.28;;;4.03;;
15952;SDS011;8075;47.766;8.846;2023-07-29T05:14:31;5.10;;;4.70;;
15952;SDS011;8075;47.766;8.846;2023-07-29T05:16:57;4.82;;;4.43;;
15952;SDS011;8075;47.766;8.846;2023-07-29T05:19:23;4.93;;;4.50;;
15952;SDS011;8075;47.766;8.846;2023-07-29T05:21:49;4.88;;;4.40;;
15952;SDS011;8075;47.766;8.846;2023-07-29T05:24:15;5.35;;;4.85;;
15952;SDS011;8075;47.766;8.846;2023-07-29T05:26:41;5.10;;;4.60;;
15952;SDS011;8075;47.766;8.846;2023-07-29T05:29:07;5.40;;;4.70;;
15952;SDS011;8075;47.766;8.846;2023-07-29T05:31:33;4.88;;;4.40;;
15952;SDS011;8075;47.766;8.846;2023-07-29T05:33:59;5.30;;;4.82;;
15952;SDS011;8075;47.766;8.846;2023-07-29T05:36:25;5.03;;;4.55;;
15952;SDS011;8075;47.766;8.846;2023-07-29T05:38:51;5.30;;;4.90;;
15952;SDS011;8075;47.766;8.846;2023-07-29T05:41:17;6.13;;;5.53;;
15952;SDS011;8075;47.766;8.846;2023-07-29T05:43:43;5.60;;;5.10;;
15952;SDS011;8075;47.766;8.846;2023-07-29T05:46:10;4.45;;;4.05;;
15952;SDS011;8075;47.766;8.846;2023-07-29T05:48:36;5.13;;;4.57;;
15952;SDS011;8075;47.766;8.846;2023-07-29T05:51:02;4.90;;;4.50;;
15952;SDS011;8075;47.766;8.846;2023-07-29T05:53:30;6.82;;;6.13;;
15952;SDS011;8075;47.766;8.846;2023-07-29T05:55:56;5.80;;;5.30;;
15952;SDS011;8075;47.766;8.846;2023-07-29T05:58:22;5.20;;;4.70;;
15952;SDS011;8075;47.766;8.846;2023-07-29T06:00:48;5.20;;;4.70;;
15952;SDS011;8075;47.766;8.846;2023-07-29T06:03:14;4.80;;;4.35;;
15952;SDS011;8075;47.766;8.846;2023-07-29T06:05:40;4.40;;;4.00;;
15952;SDS011;8075;47.766;8.846;2023-07-29T06:08:06;4.32;;;3.92;;
15952;SDS011;8075;47.766;8.846;2023-07-29T06:10:33;4.10;;;3.80;;
15952;SDS011;8075;47.766;8.846;2023-07-29T06:13:00;4.15;;;3.80;;
15952;SDS011;8075;47.766;8.846;2023-07-29T06:15:26;4.50;;;4.15;;
15952;SDS011;8075;47.766;8.846;2023-07-29T06:17:52;4.43;;;4.03;;
15952;SDS011;8075;47.766;8.846;2023-07-29T06:20:18;4.50;;;4.10;;
15952;SDS011;8075;47.766;8.846;2023-07-29T06:22:43;4.85;;;4.32;;
15952;SDS011;8075;47.766;8.846;2023-07-29T06:25:10;3.85;;;3.55;;
15952;SDS011;8075;47.766;8.846;2023-07-29T06:27:35;3.70;;;3.40;;
15952;SDS011;8075;47.766;8.846;2023-07-29T06:30:02;4.50;;;4.10;;
15952;SDS011;8075;47.766;8.846;2023-07-29T06:32:28;4.00;;;3.60;;
15952;SDS011;8075;47.766;8.846;2023-07-29T06:34:54;3.70;;;3.40;;
15952;SDS011;8075;47.766;8.846;2023-07-29T06:37:20;3.85;;;3.55;;
15952;SDS011;8075;47.766;8.846;2023-07-29T06:39:46;3.90;;;3.60;;
15952;SDS011;8075;47.766;8.846;2023-07-29T06:42:12;4.50;;;4.10;;
15952;SDS011;8075;47.766;8.846;2023-07-29T06:44:39;4.22;;;3.83;;
15952;SDS011;8075;47.766;8.846;2023-07-29T06:47:05;4.30;;;3.90;;
15952;SDS011;8075;47.766;8.846;2023-07-29T06:49:31;4.20;;;3.55;;
15952;SDS011;8075;47.766;8.846;2023-07-29T06:51:57;4.22;;;3.92;;
15952;SDS011;8075;47.766;8.846;2023-07-29T06:54:26;4.63;;;3.90;;
15952;SDS011;8075;47.766;8.846;2023-07-29T06:56:52;4.20;;;3.80;;
15952;SDS011;8075;47.766;8.846;2023-07-29T06:59:18;4.35;;;3.97;;
15952;SDS011;8075;47.766;8.846;2023-07-29T07:01:44;4.18;;;3.78;;
15952;SDS011;8075;47.766;8.846;2023-07-29T07:04:10;4.10;;;3.78;;
15952;SDS011;8075;47.766;8.846;2023-07-29T07:06:36;5.05;;;4.07;;
15952;SDS011;8075;47.766;8.846;2023-07-29T07:09:02;3.90;;;3.60;;
15952;SDS011;8075;47.766;8.846;2023-07-29T07:11:28;3.92;;;3.63;;
15952;SDS011;8075;47.766;8.846;2023-07-29T07:13:54;4.03;;;3.73;;
15952;SDS011;8075;47.766;8.846;2023-07-29T07:16:20;4.05;;;3.75;;
15952;SDS011;8075;47.766;8.846;2023-07-29T07:18:46;4.40;;;4.00;;
15952;SDS011;8075;47.766;8.846;2023-07-29T07:21:12;4.03;;;3.63;;
15952;SDS011;8075;47.766;8.846;2023-07-29T07:23:38;3.83;;;3.53;;
15952;SDS011;8075;47.766;8.846;2023-07-29T07:26:04;4.22;;;3.83;;
15952;SDS011;8075;47.766;8.846;2023-07-29T07:28:30;4.15;;;3.85;;
15952;SDS011;8075;47.766;8.846;2023-07-29T07:30:56;4.05;;;3.75;;
15952;SDS011;8075;47.766;8.846;2023-07-29T07:33:22;4.70;;;4.30;;
15952;SDS011;8075;47.766;8.846;2023-07-29T07:35:48;4.38;;;3.97;;
15952;SDS011;8075;47.766;8.846;2023-07-29T07:38:14;3.80;;;3.50;;
15952;SDS011;8075;47.766;8.846;2023-07-29T07:40:40;4.03;;;3.73;;
15952;SDS011;8075;47.766;8.846;2023-07-29T07:43:06;4.30;;;3.90;;
15952;SDS011;8075;47.766;8.846;2023-07-29T07:45:32;3.92;;;3.63;;
15952;SDS011;8075;47.766;8.846;2023-07-29T07:47:58;3.70;;;3.40;;
15952;SDS011;8075;47.766;8.846;2023-07-29T07:50:24;4.00;;;3.70;;
15952;SDS011;8075;47.766;8.846;2023-07-29T07:52:50;4.10;;;3.80;;
15952;SDS011;8075;47.766;8.846;2023-07-29T07:55:16;4.18;;;3.88;;
15952;SDS011;8075;47.766;8.846;2023-07-29T07:57:42;4.20;;;3.90;;
15952;SDS011;8075;47.766;8.846;2023-07-29T08:00:08;3.80;;;3.50;;
15952;SDS011;8075;47.766;8.846;2023-07-29T08:02:34;4.25;;;3.95;;
15952;SDS011;8075;47.766;8.846;2023-07-29T08:05:01;4.10;;;3.80;;
15952;SDS011;8075;47.766;8.846;2023-07-29T08:07:26;4.10;;;3.70;;
15952;SDS011;8075;47.766;8.846;2023-07-29T08:09:52;4.20;;;3.80;;
15952;SDS011;8075;47.766;8.846;2023-07-29T08:12:18;3.97;;;3.67;;
15952;SDS011;8075;47.766;8.846;2023-07-29T08:14:45;4.05;;;3.75;;
15952;SDS011;8075;47.766;8.846;2023-07-29T08:17:11;4.93;;;4.10;;
15952;SDS011;8075;47.766;8.846;2023-07-29T08:19:36;4.10;;;3.80;;
15952;SDS011;8075;47.766;8.846;2023-07-29T08:22:02;4.32;;;3.55;;
15952;SDS011;8075;47.766;8.846;2023-07-29T08:24:29;4.05;;;3.40;;
15952;SDS011;8075;47.766;8.846;2023-07-29T08:26:55;3.55;;;3.25;;
15952;SDS011;8075;47.766;8.846;2023-07-29T08:29:21;3.78;;;3.47;;
15952;SDS011;8075;47.766;8.846;2023-07-29T08:31:47;3.78;;;3.45;;
15952;SDS011;8075;47.766;8.846;2023-07-29T08:34:13;3.80;;;3.50;;
15952;SDS011;8075;47.766;8.846;2023-07-29T08:36:39;4.03;;;3.70;;
15952;SDS011;8075;47.766;8.846;2023-07-29T08:39:05;3.92;;;3.63;;
15952;SDS011;8075;47.766;8.846;2023-07-29T08:41:40;3.92;;;3.53;;
15952;SDS011;8075;47.766;8.846;2023-07-29T08:44:11;4.13;;;3.80;;
15952;SDS011;8075;47.766;8.846;2023-07-29T08:46:38;3.92;;;3.60;;
15952;SDS011;8075;47.766;8.846;2023-07-29T08:49:05;3.70;;;3.40;;
15952;SDS011;8075;47.766;8.846;2023-07-29T08:51:31;3.50;;;3.20;;
15952;SDS011;8075;47.766;8.846;2023-07-29T08:53:58;3.22;;;3.03;;
15952;SDS011;8075;47.766;8.846;2023-07-29T08:56:24;3.58;;;3.28;;
15952;SDS011;8075;47.766;8.846;2023-07-29T08:58:52;3.40;;;3.10;;
15952;SDS011;8075;47.766;8.846;2023-07-29T09:01:18;3.60;;;3.30;;
15952;SDS011;8075;47.766;8.846;2023-07-29T09:03:44;3.47;;;3.17;;
15952;SDS011;8075;47.766;8.846;2023-07-29T09:06:10;3.83;;;3.53;;
15952;SDS011;8075;47.766;8.846;2023-07-29T09:08:36;3.25;;;2.95;;
15952;SDS011;8075;47.766;8.846;2023-07-29T09:11:02;3.65;;;3.05;;
15952;SDS011;8075;47.766;8.846;2023-07-29T09:13:28;3.42;;;3.13;;
15952;SDS011;8075;47.766;8.846;2023-07-29T09:15:55;3.03;;;2.80;;
15952;SDS011;8075;47.766;8.846;2023-07-29T09:18:23;3.00;;;2.80;;
15952;SDS011;8075;47.766;8.846;2023-07-29T09:20:49;2.80;;;2.60;;
15952;SDS011;8075;47.766;8.846;2023-07-29T09:23:15;3.53;;;2.83;;
15952;SDS011;8075;47.766;8.846;2023-07-29T09:25:42;3.10;;;2.80;;
15952;SDS011;8075;47.766;8.846;2023-07-29T09:28:09;2.70;;;2.50;;
15952;SDS011;8075;47.766;8.846;2023-07-29T09:30:35;2.83;;;2.63;;
15952;SDS011;8075;47.766;8.846;2023-07-29T09:33:01;5.45;;;2.65;;
15952;SDS011;8075;47.766;8.846;2023-07-29T09:35:31;2.80;;;2.60;;
15952;SDS011;8075;47.766;8.846;2023-07-29T09:37:58;2.80;;;2.60;;
15952;SDS011;8075;47.766;8.846;2023-07-29T09:40:24;3.33;;;2.65;;
15952;SDS011;8075;47.766;8.846;2023-07-29T09:42:51;2.85;;;2.53;;
15952;SDS011;8075;47.766;8.846;2023-07-29T09:45:20;2.80;;;2.50;;
15952;SDS011;8075;47.766;8.846;2023-07-29T09:47:46;2.70;;;2.45;;
15952;SDS011;8075;47.766;8.846;2023-07-29T09:50:13;2.55;;;2.35;;
15952;SDS011;8075;47.766;8.846;2023-07-29T09:52:39;2.65;;;2.45;;
15952;SDS011;8075;47.766;8.846;2023-07-29T09:55:05;2.40;;;2.20;;
15952;SDS011;8075;47.766;8.846;2023-07-29T09:57:32;2.70;;;2.42;;
15952;SDS011;8075;47.766;8.846;2023-07-29T09:59:58;2.65;;;2.42;;
15952;SDS011;8075;47.766;8.846;2023-07-29T10:02:24;2.78;;;2.30;;
15952;SDS011;8075;47.766;8.846;2023-07-29T10:04:53;2.88;;;2.67;;
15952;SDS011;8075;47.766;8.846;2023-07-29T10:07:20;2.33;;;2.13;;
15952;SDS011;8075;47.766;8.846;2023-07-29T10:09:46;2.90;;;2.15;;
15952;SDS011;8075;47.766;8.846;2023-07-29T10:12:13;2.60;;;2.13;;
15952;SDS011;8075;47.766;8.846;2023-07-29T10:14:39;2.50;;;2.30;;
15952;SDS011;8075;47.766;8.846;2023-07-29T10:17:06;2.95;;;2.65;;
15952;SDS011;8075;47.766;8.846;2023-07-29T10:19:32;3.20;;;2.90;;
15952;SDS011;8075;47.766;8.846;2023-07-29T10:21:59;2.88;;;2.67;;
15952;SDS011;8075;47.766;8.846;2023-07-29T10:24:29;2.40;;;2.20;;
15952;SDS011;8075;47.766;8.846;2023-07-29T10:26:59;2.40;;;2.22;;
15952;SDS011;8075;47.766;8.846;2023-07-29T10:29:30;3.30;;;2.40;;
15952;SDS011;8075;47.766;8.846;2023-07-29T10:31:58;5.03;;;2.03;;
15952;SDS011;8075;47.766;8.846;2023-07-29T10:34:27;2.35;;;2.08;;
15952;SDS011;8075;47.766;8.846;2023-07-29T10:36:53;4.25;;;2.22;;
15952;SDS011;8075;47.766;8.846;2023-07-29T10:39:19;3.08;;;2.08;;
15952;SDS011;8075;47.766;8.846;2023-07-29T10:42:01;2.08;;;1.90;;
15952;SDS011;8075;47.766;8.846;2023-07-29T10:47:15;2.55;;;2.00;;
15952;SDS011;8075;47.766;8.846;2023-07-29T10:49:41;2.13;;;2.00;;
15952;SDS011;8075;47.766;8.846;2023-07-29T10:52:08;2.33;;;2.13;;
15952;SDS011;8075;47.766;8.846;2023-07-29T10:54:47;2.35;;;1.75;;
15952;SDS011;8075;47.766;8.846;2023-07-29T10:57:29;2.40;;;1.80;;
15952;SDS011;8075;47.766;8.846;2023-07-29T10:59:56;1.90;;;1.67;;
15952;SDS011;8075;47.766;8.846;2023-07-29T11:02:28;2.22;;;2.03;;
15952;SDS011;8075;47.766;8.846;2023-07-29T11:04:54;2.53;;;2.20;;
15952;SDS011;8075;47.766;8.846;2023-07-29T11:07:21;2.13;;;1.92;;
15952;SDS011;8075;47.766;8.846;2023-07-29T11:15:03;2.30;;;1.80;;
15952;SDS011;8075;47.766;8.846;2023-07-29T11:17:30;1.90;;;1.80;;
15952;SDS011;8075;47.766;8.846;2023-07-29T11:20:00;2.88;;;1.90;;
15952;SDS011;8075;47.766;8.846;2023-07-29T11:22:26;2.22;;;1.75;;
15952;SDS011;8075;47.766;8.846;2023-07-29T11:24:53;1.70;;;1.60;;
15952;SDS011;8075;47.766;8.846;2023-07-29T11:27:19;1.90;;;1.80;;
15952;SDS011;8075;47.766;8.846;2023-07-29T11:29:46;1.92;;;1.80;;
15952;SDS011;8075;47.766;8.846;2023-07-29T11:32:12;1.77;;;1.67;;
15952;SDS011;8075;47.766;8.846;2023-07-29T11:34:38;1.80;;;1.70;;
15952;SDS011;8075;47.766;8.846;2023-07-29T11:37:11;1.90;;;1.80;;
15952;SDS011;8075;47.766;8.846;2023-07-29T11:39:39;2.55;;;1.92;;
15952;SDS011;8075;47.766;8.846;2023-07-29T11:42:06;2.10;;;2.00;;
15952;SDS011;8075;47.766;8.846;2023-07-29T11:44:32;2.88;;;1.70;;
15952;SDS011;8075;47.766;8.846;2023-07-29T11:46:58;2.33;;;1.65;;
15952;SDS011;8075;47.766;8.846;2023-07-29T11:49:24;2.03;;;1.85;;
15952;SDS011;8075;47.766;8.846;2023-07-29T11:51:50;1.80;;;1.70;;
15952;SDS011;8075;47.766;8.846;2023-07-29T11:54:16;2.03;;;1.73;;
15952;SDS011;8075;47.766;8.846;2023-07-29T11:56:46;1.98;;;1.77;;
15952;SDS011;8075;47.766;8.846;2023-07-29T11:59:12;1.70;;;1.60;;
15952;SDS011;8075;47.766;8.846;2023-07-29T12:01:38;1.70;;;1.60;;
15952;SDS011;8075;47.766;8.846;2023-07-29T12:04:04;2.00;;;1.60;;
15952;SDS011;8075;47.766;8.846;2023-07-29T12:06:32;5.13;;;4.63;;
15952;SDS011;8075;47.766;8.846;2023-07-29T12:08:58;4.30;;;2.10;;
15952;SDS011;8075;47.766;8.846;2023-07-29T12:11:24;2.07;;;1.87;;
15952;SDS011;8075;47.766;8.846;2023-07-29T12:13:50;3.67;;;2.70;;
15952;SDS011;8075;47.766;8.846;2023-07-29T12:16:18;2.40;;;2.20;;
15952;SDS011;8075;47.766;8.846;2023-07-29T12:18:44;2.13;;;1.92;;
15952;SDS011;8075;47.766;8.846;2023-07-29T12:21:10;1.98;;;1.85;;
15952;SDS011;8075;47.766;8.846;2023-07-29T12:23:39;2.10;;;1.90;;
15952;SDS011;8075;47.766;8.846;2023-07-29T12:26:05;1.97;;;1.87;;
15952;SDS011;8075;47.766;8.846;2023-07-29T12:28:31;2.00;;;1.90;;
15952;SDS011;8075;47.766;8.846;2023-07-29T12:30:57;2.40;;;2.20;;
15952;SDS011;8075;47.766;8.846;2023-07-29T12:33:36;2.40;;;2.10;;
15952;SDS011;8075;47.766;8.846;2023-07-29T12:36:07;2.22;;;1.70;;
15952;SDS011;8075;47.766;8.846;2023-07-29T12:38:33;1.80;;;1.70;;
15952;SDS011;8075;47.766;8.846;2023-07-29T12:40:59;1.80;;;1.60;;
15952;SDS011;8075;47.766;8.846;2023-07-29T12:43:25;1.73;;;1.63;;
15952;SDS011;8075;47.766;8.846;2023-07-29T12:45:51;1.87;;;1.73;;
15952;SDS011;8075;47.766;8.846;2023-07-29T12:48:17;1.83;;;1.67;;
15952;SDS011;8075;47.766;8.846;2023-07-29T12:50:44;1.33;;;1.23;;
15952;SDS011;8075;47.766;8.846;2023-07-29T12:53:10;1.70;;;1.60;;
15952;SDS011;8075;47.766;8.846;2023-07-29T12:55:36;1.60;;;1.50;;
15952;SDS011;8075;47.766;8.846;2023-07-29T12:58:02;1.60;;;1.50;;
15952;SDS011;8075;47.766;8.846;2023-07-29T13:00:31;1.30;;;1.20;;
15952;SDS011;8075;47.766;8.846;2023-07-29T13:02:57;1.63;;;1.45;;
15952;SDS011;8075;47.766;8.846;2023-07-29T13:05:23;2.47;;;1.50;;
15952;SDS011;8075;47.766;8.846;2023-07-29T13:07:49;2.55;;;1.60;;
15952;SDS011;8075;47.766;8.846;2023-07-29T13:10:15;2.08;;;1.77;;
15952;SDS011;8075;47.766;8.846;2023-07-29T13:12:41;2.60;;;1.70;;
15952;SDS011;8075;47.766;8.846;2023-07-29T13:15:07;4.82;;;1.80;;
15952;SDS011;8075;47.766;8.846;2023-07-29T13:17:33;1.90;;;1.70;;
15952;SDS011;8075;47.766;8.846;2023-07-29T13:19:59;1.80;;;1.65;;
15952;SDS011;8075;47.766;8.846;2023-07-29T13:22:25;2.28;;;1.70;;
15952;SDS011;8075;47.766;8.846;2023-07-29T13:25:07;2.10;;;1.90;;
15952;SDS011;8075;47.766;8.846;2023-07-29T13:27:33;2.70;;;1.80;;
15952;SDS011;8075;47.766;8.846;2023-07-29T13:29:59;2.50;;;1.38;;
15952;SDS011;8075;47.766;8.846;2023-07-29T13:32:25;2.72;;;1.52;;
15952;SDS011;8075;47.766;8.846;2023-07-29T13:34:51;2.60;;;1.65;;
15952;SDS011;8075;47.766;8.846;2023-07-29T13:37:17;2.10;;;1.58;;
15952;SDS011;8075;47.766;8.846;2023-07-29T13:39:43;3.37;;;1.50;;
15952;SDS011;8075;47.766;8.846;2023-07-29T13:42:09;1.67;;;1.57;;
15952;SDS011;8075;47.766;8.846;2023-07-29T13:44:35;2.70;;;1.48;;
15952;SDS011;8075;47.766;8.846;2023-07-29T13:47:01;3.42;;;1.55;;
15952;SDS011;8075;47.766;8.846;2023-07-29T13:49:27;1.52;;;1.33;;
15952;SDS011;8075;47.766;8.846;2023-07-29T13:51:53;1.23;;;1.15;;
15952;SDS011;8075;47.766;8.846;2023-07-29T13:54:19;1.42;;;1.10;;
15952;SDS011;8075;47.766;8.846;2023-07-29T13:56:46;2.20;;;1.10;;
15952;SDS011;8075;47.766;8.846;2023-07-29T13:59:12;1.27;;;1.17;;
15952;SDS011;8075;47.766;8.846;2023-07-29T14:01:38;1.90;;;1.40;;
15952;SDS011;8075;47.766;8.846;2023-07-29T14:04:04;1.90;;;1.55;;
15952;SDS011;8075;47.766;8.846;2023-07-29T14:06:30;2.20;;;1.40;;
15952;SDS011;8075;47.766;8.846;2023-07-29T14:08:56;2.53;;;1.58;;
15952;SDS011;8075;47.766;8.846;2023-07-29T14:11:22;2.08;;;1.52;;
15952;SDS011;8075;47.766;8.846;2023-07-29T14:13:48;2.05;;;1.45;;
15952;SDS011;8075;47.766;8.846;2023-07-29T14:16:14;1.60;;;1.50;;
15952;SDS011;8075;47.766;8.846;2023-07-29T14:18:40;2.08;;;1.85;;
15952;SDS011;8075;47.766;8.846;2023-07-29T14:21:06;2.10;;;1.90;;
15952;SDS011;8075;47.766;8.846;2023-07-29T14:23:32;2.50;;;2.30;;
15952;SDS011;8075;47.766;8.846;2023-07-29T14:25:58;2.33;;;2.13;;
15952;SDS011;8075;47.766;8.846;2023-07-29T14:28:24;2.93;;;2.30;;
15952;SDS011;8075;47.766;8.846;2023-07-29T14:30:50;2.38;;;2.20;;
15952;SDS011;8075;47.766;8.846;2023-07-29T14:33:16;2.67;;;2.47;;
15952;SDS011;8075;47.766;8.846;2023-07-29T14:35:42;2.50;;;2.20;;
15952;SDS011;8075;47.766;8.846;2023-07-29T14:38:08;2.67;;;2.42;;
15952;SDS011;8075;47.766;8.846;2023-07-29T14:40:34;2.25;;;2.05;;
15952;SDS011;8075;47.766;8.846;2023-07-29T14:43:00;3.00;;;2.10;;
15952;SDS011;8075;47.766;8.846;2023-07-29T14:45:26;2.88;;;2.50;;
15952;SDS011;8075;47.766;8.846;2023-07-29T14:47:52;2.27;;;2.07;;
15952;SDS011;8075;47.766;8.846;2023-07-29T14:50:18;2.35;;;2.15;;
15952;SDS011;8075;47.766;8.846;2023-07-29T14:52:44;2.42;;;2.22;;
15952;SDS011;8075;47.766;8.846;2023-07-29T14:55:10;3.10;;;2.55;;
15952;SDS011;8075;47.766;8.846;2023-07-29T14:57:36;2.40;;;2.13;;
15952;SDS011;8075;47.766;8.846;2023-07-29T15:00:03;2.72;;;2.42;;
15952;SDS011;8075;47.766;8.846;2023-07-29T15:02:29;2.80;;;2.50;;
15952;SDS011;8075;47.766;8.846;2023-07-29T15:04:55;3.28;;;2.97;;
15952;SDS011;8075;47.766;8.846;2023-07-29T15:07:21;2.47;;;2.28;;
15952;SDS011;8075;47.766;8.846;2023-07-29T15:09:47;2.67;;;2.47;;
15952;SDS011;8075;47.766;8.846;2023-07-29T15:12:13;3.10;;;2.80;;
15952;SDS011;8075;47.766;8.846;2023-07-29T15:14:39;3.55;;;2.50;;